createdAt,value
2023-05-14T00:03:07.555Z,57.69
2023-05-14T00:08:09.294Z,58.10
2023-05-14T00:13:10.818Z,58.42
2023-05-14T00:18:12.462Z,57.94
2023-05-14T00:23:14.016Z,57.86
2023-05-14T00:28:15.500Z,57.75
2023-05-14T00:33:16.996Z,57.92
2023-05-14T00:38:19.505Z,57.01
2023-05-14T00:43:21.151Z,56.55
2023-05-14T00:48:22.775Z,55.91
2023-05-14T00:53:24.268Z,55.71
2023-05-14T00:58:26.294Z,55.89
2023-05-14T01:03:27.830Z,55.18
2023-05-14T01:08:53.968Z,54.98
2023-05-14T01:14:23.031Z,54.79
2023-05-14T01:19:41.214Z,54.04
2023-05-14T01:24:42.699Z,53.79
2023-05-14T01:29:55.506Z,54.01
2023-05-14T01:34:57.170Z,54.93
2023-05-14T01:39:58.849Z,54.70
2023-05-14T01:45:00.796Z,55.05
2023-05-14T01:50:02.297Z,54.54
2023-05-14T01:55:05.108Z,55.16
2023-05-14T02:00:07.481Z,54.68
2023-05-14T02:05:10.367Z,54.00
2023-05-14T02:10:11.895Z,54.45
2023-05-14T02:15:13.380Z,53.76
2023-05-14T02:20:14.934Z,54.01
2023-05-14T02:25:16.514Z,54.05
2023-05-14T02:30:18.050Z,53.93
2023-05-14T02:35:19.553Z,54.86
2023-05-14T02:40:21.162Z,54.87
2023-05-14T02:45:22.856Z,53.78
2023-05-14T02:50:24.638Z,54.92
2023-05-14T02:55:26.495Z,54.96
2023-05-14T03:00:27.995Z,54.88
2023-05-14T03:05:29.866Z,54.40
2023-05-14T03:10:32.876Z,54.66
2023-05-14T03:15:34.481Z,54.32
2023-05-14T03:20:35.962Z,54.85
2023-05-14T03:25:37.437Z,55.29
2023-05-14T03:30:39.015Z,54.42
2023-05-14T03:35:40.640Z,54.60
2023-05-14T03:40:42.130Z,54.55
2023-05-14T03:45:43.842Z,54.64
2023-05-14T03:50:45.625Z,55.22
2023-05-14T03:55:47.414Z,56.21
2023-05-14T04:00:48.993Z,55.73
2023-05-14T04:05:50.954Z,54.08
2023-05-14T04:10:52.444Z,53.86
2023-05-14T04:15:53.967Z,55.08
2023-05-14T04:20:55.667Z,54.18
2023-05-14T04:25:57.557Z,53.47
2023-05-14T04:30:59.043Z,53.92
2023-05-14T04:36:00.852Z,54.57
2023-05-14T04:41:02.345Z,54.71
2023-05-14T04:46:03.897Z,53.99
2023-05-14T04:51:07.112Z,54.27
2023-05-14T04:56:08.775Z,54.38
2023-05-14T05:01:10.577Z,54.56
2023-05-14T05:06:12.124Z,54.61
2023-05-14T05:11:13.633Z,54.54
2023-05-14T05:16:15.652Z,53.95
2023-05-14T05:21:17.244Z,54.35
2023-05-14T05:26:18.737Z,54.18
2023-05-14T05:31:20.305Z,54.26
2023-05-14T05:36:21.839Z,54.36
2023-05-14T05:41:23.356Z,56.29
2023-05-14T05:46:24.886Z,56.76
2023-05-14T05:51:26.414Z,56.29
2023-05-14T05:56:27.937Z,56.07
2023-05-14T06:01:29.526Z,56.21
2023-05-14T06:06:32.680Z,56.21
2023-05-14T06:11:34.180Z,56.57
2023-05-14T06:16:36.680Z,56.10
2023-05-14T06:21:38.244Z,55.56
2023-05-14T06:26:39.741Z,55.15
2023-05-14T06:31:41.272Z,54.29
2023-05-14T06:36:42.802Z,53.95
2023-05-14T06:41:44.321Z,53.68
2023-05-14T06:46:45.818Z,52.63
2023-05-14T06:51:47.378Z,52.80
2023-05-14T06:56:48.926Z,51.40
2023-05-14T07:01:50.647Z,52.02
2023-05-14T07:06:52.238Z,50.83
2023-05-14T07:11:53.780Z,51.14
2023-05-14T07:16:55.399Z,49.56
2023-05-14T07:21:57.628Z,49.56
2023-05-14T07:26:59.139Z,49.61
2023-05-14T07:32:01.459Z,48.68
2023-05-14T07:37:02.986Z,48.66
2023-05-14T07:42:04.637Z,47.97
2023-05-14T07:47:07.458Z,46.68
2023-05-14T07:52:09.008Z,45.13
2023-05-14T07:57:10.497Z,44.93
2023-05-14T08:02:12.860Z,42.94
2023-05-14T08:07:14.450Z,43.83
2023-05-14T08:12:16.151Z,43.65
2023-05-14T08:17:18.042Z,43.63
2023-05-14T08:22:19.588Z,43.66
2023-05-14T08:27:21.560Z,43.33
2023-05-14T08:32:24.166Z,43.27
2023-05-14T08:37:25.887Z,43.79
2023-05-14T08:42:27.382Z,43.68
2023-05-14T08:47:30.239Z,43.58
2023-05-14T08:52:32.010Z,44.00
2023-05-14T08:57:33.799Z,44.33
2023-05-14T09:02:35.912Z,44.05
2023-05-14T09:07:37.478Z,44.34
2023-05-14T09:12:38.981Z,44.30
2023-05-14T09:17:40.562Z,43.85
2023-05-14T09:22:42.103Z,41.87
2023-05-14T09:27:43.800Z,42.72
2023-05-14T09:32:46.098Z,42.67
2023-05-14T09:37:49.422Z,42.81
2023-05-14T09:42:50.958Z,43.27
2023-05-14T09:47:53.313Z,43.33
2023-05-14T09:52:55.905Z,43.15
2023-05-14T09:57:57.411Z,42.99
2023-05-14T10:02:58.911Z,43.20
2023-05-14T10:08:00.593Z,44.83
2023-05-14T10:13:07.219Z,43.86
2023-05-14T10:18:13.067Z,43.53
2023-05-14T10:23:14.683Z,43.52
2023-05-14T10:28:16.207Z,43.06
2023-05-14T10:33:18.696Z,41.92
2023-05-14T10:38:23.240Z,41.46
2023-05-14T10:43:25.536Z,40.22
2023-05-14T10:48:27.064Z,41.92
2023-05-14T10:53:39.048Z,40.61
2023-05-14T10:58:42.390Z,40.06
2023-05-14T11:03:45.501Z,40.32
2023-05-14T11:08:47.189Z,40.92
2023-05-14T11:13:48.717Z,40.67
2023-05-14T11:18:54.084Z,40.44
2023-05-14T11:23:56.942Z,39.88
2023-05-14T11:28:58.492Z,38.74
2023-05-14T11:34:00.430Z,39.77
2023-05-14T11:39:01.921Z,38.64
2023-05-14T11:44:03.436Z,38.49
2023-05-14T11:49:05.309Z,37.58
2023-05-14T11:54:06.802Z,37.93
2023-05-14T11:59:08.339Z,37.29
2023-05-14T12:04:09.926Z,36.93
2023-05-14T12:09:12.571Z,36.15
2023-05-14T12:14:21.103Z,36.38
2023-05-14T12:19:23.447Z,35.87
2023-05-14T12:24:25.570Z,34.94
2023-05-14T12:29:27.069Z,34.25
2023-05-14T12:34:28.605Z,34.07
2023-05-14T12:39:31.950Z,35.22
2023-05-14T12:44:33.432Z,34.52
2023-05-14T12:49:34.914Z,35.24
2023-05-14T12:54:36.397Z,34.20
2023-05-14T12:59:38.278Z,33.91
2023-05-14T13:04:41.407Z,33.50
2023-05-14T13:09:42.937Z,34.01
2023-05-14T13:14:44.428Z,32.61
2023-05-14T13:19:45.923Z,34.71
2023-05-14T13:24:47.504Z,33.26
2023-05-14T13:29:49.005Z,32.61
2023-05-14T13:34:50.485Z,31.01
2023-05-14T13:39:51.991Z,30.74
2023-05-14T13:44:53.482Z,30.93
2023-05-14T13:49:55.027Z,29.98
2023-05-14T13:54:56.779Z,30.98
2023-05-14T13:59:58.353Z,28.00
2023-05-14T14:04:59.744Z,30.09
2023-05-14T14:10:02.279Z,29.01
2023-05-14T14:15:05.578Z,27.33
2023-05-14T14:20:08.419Z,27.83
2023-05-14T14:25:11.077Z,28.42
2023-05-14T14:30:15.790Z,26.85
2023-05-14T14:35:18.035Z,26.58
2023-05-14T14:40:19.731Z,24.68
2023-05-14T14:45:21.436Z,26.44
2023-05-14T14:50:22.976Z,27.02
2023-05-14T14:55:24.750Z,28.52
2023-05-14T15:00:26.377Z,30.80
2023-05-14T15:05:28.306Z,31.61
2023-05-14T15:10:30.825Z,29.40
2023-05-14T15:15:33.071Z,30.37
2023-05-14T15:20:34.583Z,30.61
2023-05-14T15:25:36.145Z,30.53
2023-05-14T15:30:37.706Z,29.90
2023-05-14T15:35:39.262Z,28.70
2023-05-14T15:40:40.963Z,29.82
2023-05-14T15:45:44.401Z,29.89
2023-05-14T15:50:49.539Z,31.12
2023-05-14T15:55:51.311Z,32.19
2023-05-14T16:00:52.909Z,32.54
2023-05-14T16:05:55.077Z,31.80
2023-05-14T16:10:56.562Z,31.24
2023-05-14T16:15:59.508Z,30.93
2023-05-14T16:21:01.893Z,31.09
2023-05-14T16:26:03.401Z,31.89
2023-05-14T16:31:04.945Z,31.28
2023-05-14T16:36:06.490Z,32.40
2023-05-14T16:41:09.410Z,34.03
2023-05-14T16:46:11.888Z,33.69
2023-05-14T16:51:13.472Z,32.19
2023-05-14T16:56:15.004Z,35.21
2023-05-14T17:01:16.528Z,37.34
2023-05-14T17:06:18.039Z,40.84
2023-05-14T17:11:20.623Z,41.69
2023-05-14T17:16:22.224Z,41.80
2023-05-14T17:21:23.766Z,43.46
2023-05-14T17:26:26.266Z,43.42
2023-05-14T17:31:27.819Z,44.48
2023-05-14T17:36:29.427Z,42.37
2023-05-14T17:41:30.955Z,43.86
2023-05-14T17:46:33.798Z,45.45
2023-05-14T17:51:35.467Z,45.86
2023-05-14T17:56:36.969Z,45.20
2023-05-14T18:01:38.532Z,45.86
2023-05-14T18:06:40.165Z,48.20
2023-05-14T18:11:41.657Z,47.21
2023-05-14T18:16:43.434Z,48.30
2023-05-14T18:21:48.058Z,48.37
2023-05-14T18:26:49.575Z,48.14
2023-05-14T18:31:51.103Z,47.96
2023-05-14T18:36:52.601Z,48.34
2023-05-14T18:41:55.057Z,48.27
2023-05-14T18:46:56.622Z,47.72
2023-05-14T18:51:58.103Z,46.91
2023-05-14T18:57:00.482Z,47.01
2023-05-14T19:02:02.031Z,47.91
2023-05-14T19:07:03.718Z,46.94
2023-05-14T19:12:05.427Z,46.80
2023-05-14T19:17:06.931Z,44.92
2023-05-14T19:22:08.425Z,46.06
2023-05-14T19:27:10.010Z,46.11
2023-05-14T19:32:11.508Z,46.59
2023-05-14T19:37:13.264Z,46.42
2023-05-14T19:42:14.823Z,47.08
2023-05-14T19:47:16.421Z,46.92
2023-05-14T19:52:17.942Z,47.23
2023-05-14T19:57:19.498Z,47.81
2023-05-14T20:02:21.909Z,48.02
2023-05-14T20:07:24.986Z,49.82
2023-05-14T20:12:27.713Z,49.40
2023-05-14T20:17:29.589Z,48.76
2023-05-14T20:22:31.172Z,48.57
2023-05-14T20:27:32.701Z,48.47
2023-05-14T20:32:34.313Z,48.24
2023-05-14T20:37:35.800Z,46.60
2023-05-14T20:42:37.290Z,46.34
2023-05-14T20:47:38.895Z,46.16
2023-05-14T20:52:40.756Z,45.81
2023-05-14T20:57:43.606Z,46.16
2023-05-14T21:02:45.404Z,46.86
2023-05-14T21:07:47.009Z,47.34
2023-05-14T21:12:48.523Z,47.73
2023-05-14T21:17:50.088Z,47.93
2023-05-14T21:22:51.655Z,48.29
2023-05-14T21:27:53.213Z,48.92
2023-05-14T21:32:54.827Z,49.49
2023-05-14T21:37:56.362Z,49.97
2023-05-14T21:42:57.874Z,50.02
2023-05-14T21:47:59.468Z,50.95
2023-05-14T21:53:01.022Z,50.39
2023-05-14T21:58:05.505Z,50.49
2023-05-14T22:03:07.044Z,51.07
2023-05-14T22:08:08.626Z,51.50
2023-05-14T22:13:10.940Z,52.15
2023-05-14T22:18:12.922Z,52.86
2023-05-14T22:23:14.614Z,52.01
2023-05-14T22:28:16.163Z,51.86
2023-05-14T22:33:19.209Z,52.20
2023-05-14T22:38:20.873Z,51.00
2023-05-14T22:43:22.359Z,51.14
2023-05-14T22:48:23.928Z,51.86
2023-05-14T22:53:25.520Z,53.27
2023-05-14T22:58:27.053Z,52.47
2023-05-14T23:03:28.574Z,52.83
2023-05-14T23:08:30.113Z,53.52
2023-05-14T23:13:31.626Z,53.43
2023-05-14T23:18:33.311Z,53.12
2023-05-14T23:23:35.232Z,53.07
2023-05-14T23:28:36.709Z,53.06
2023-05-14T23:33:39.773Z,52.99
2023-05-14T23:38:41.351Z,52.66
2023-05-14T23:43:42.836Z,53.38
2023-05-14T23:48:44.330Z,52.96
2023-05-14T23:53:45.833Z,52.55
2023-05-14T23:58:47.371Z,52.56
